sensor_id;sensor_type;location;lat;lon;timestamp;pressure;altitude;pressure_sealevel;temperature;humidity
7990;BME280;4040;42.848;23.034;2022-07-29T00:03:29;95136.22;;;18.13;100.00
7990;BME280;4040;42.848;23.034;2022-07-29T00:13:42;95118.56;;;18.52;100.00
7990;BME280;4040;42.848;23.034;2022-07-29T00:19:30;95083.03;;;18.43;100.00
7990;BME280;4040;42.848;23.034;2022-07-29T00:25:19;95092.28;;;18.67;100.00
7990;BME280;4040;42.848;23.034;2022-07-29T00:31:09;95087.44;;;18.71;100.00
7990;BME280;4040;42.848;23.034;2022-07-29T00:36:58;95093.19;;;18.64;100.00
7990;BME280;4040;42.848;23.034;2022-07-29T00:42:49;95080.78;;;18.72;100.00
7990;BME280;4040;42.848;23.034;2022-07-29T00:48:39;95062.09;;;18.61;100.00
7990;BME280;4040;42.848;23.034;2022-07-29T00:54:28;95070.84;;;18.56;100.00
7990;BME280;4040;42.848;23.034;2022-07-29T01:00:19;95060.69;;;18.57;100.00
7990;BME280;4040;42.848;23.034;2022-07-29T01:06:09;95078.81;;;18.51;100.00
7990;BME280;4040;42.848;23.034;2022-07-29T01:16:23;95096.47;;;18.37;100.00
7990;BME280;4040;42.848;23.034;2022-07-29T01:22:28;95093.09;;;18.33;100.00
7990;BME280;4040;42.848;23.034;2022-07-29T01:34:48;95078.41;;;17.97;100.00
7990;BME280;4040;42.848;23.034;2022-07-29T01:40:45;95072.31;;;17.93;100.00
7990;BME280;4040;42.848;23.034;2022-07-29T01:46:37;95063.09;;;18.12;100.00
7990;BME280;4040;42.848;23.034;2022-07-29T01:52:33;95069.00;;;17.98;100.00
7990;BME280;4040;42.848;23.034;2022-07-29T01:58:23;95065.81;;;17.78;100.00
7990;BME280;4040;42.848;23.034;2022-07-29T02:04:15;95067.50;;;17.97;100.00
7990;BME280;4040;42.848;23.034;2022-07-29T02:10:07;95063.09;;;18.12;100.00
7990;BME280;4040;42.848;23.034;2022-07-29T02:15:58;95058.63;;;17.84;100.00
7990;BME280;4040;42.848;23.034;2022-07-29T02:21:51;95057.81;;;17.62;100.00
7990;BME280;4040;42.848;23.034;2022-07-29T02:27:43;95057.91;;;17.59;100.00
7990;BME280;4040;42.848;23.034;2022-07-29T02:33:33;95052.75;;;17.73;100.00
7990;BME280;4040;42.848;23.034;2022-07-29T02:39:23;95047.88;;;17.68;100.00
7990;BME280;4040;42.848;23.034;2022-07-29T02:45:13;95050.41;;;17.97;100.00
7990;BME280;4040;42.848;23.034;2022-07-29T02:51:06;95042.81;;;18.13;100.00
7990;BME280;4040;42.848;23.034;2022-07-29T02:56:58;95031.72;;;18.29;100.00
7990;BME280;4040;42.848;23.034;2022-07-29T03:02:52;95044.09;;;18.21;100.00
7990;BME280;4040;42.848;23.034;2022-07-29T03:08:42;95041.16;;;18.37;100.00
7990;BME280;4040;42.848;23.034;2022-07-29T03:18:55;95044.72;;;18.46;100.00
7990;BME280;4040;42.848;23.034;2022-07-29T03:24:44;95052.56;;;18.44;100.00
7990;BME280;4040;42.848;23.034;2022-07-29T03:30:32;95053.22;;;18.48;100.00
7990;BME280;4040;42.848;23.034;2022-07-29T03:36:23;95062.97;;;18.37;100.00
7990;BME280;4040;42.848;23.034;2022-07-29T03:42:13;95057.53;;;18.37;100.00
7990;BME280;4040;42.848;23.034;2022-07-29T03:48:08;95054.34;;;18.60;100.00
7990;BME280;4040;42.848;23.034;2022-07-29T03:54:01;95038.13;;;18.56;100.00
7990;BME280;4040;42.848;23.034;2022-07-29T03:59:51;95049.34;;;18.89;100.00
7990;BME280;4040;42.848;23.034;2022-07-29T04:05:39;95042.84;;;18.95;100.00
7990;BME280;4040;42.848;23.034;2022-07-29T04:11:29;95063.63;;;19.23;100.00
7990;BME280;4040;42.848;23.034;2022-07-29T04:17:48;95064.38;;;19.33;100.00
7990;BME280;4040;42.848;23.034;2022-07-29T04:23:37;95070.31;;;19.31;100.00
7990;BME280;4040;42.848;23.034;2022-07-29T04:29:27;95082.84;;;19.20;100.00
7990;BME280;4040;42.848;23.034;2022-07-29T04:35:15;95071.81;;;18.93;100.00
7990;BME280;4040;42.848;23.034;2022-07-29T04:42:19;95079.94;;;19.14;100.00
7990;BME280;4040;42.848;23.034;2022-07-29T04:48:08;95053.34;;;19.45;100.00
7990;BME280;4040;42.848;23.034;2022-07-29T04:53:57;95069.69;;;20.39;100.00
7990;BME280;4040;42.848;23.034;2022-07-29T04:59:47;95074.03;;;20.99;100.00
7990;BME280;4040;42.848;23.034;2022-07-29T05:05:35;95073.25;;;20.98;100.00
7990;BME280;4040;42.848;23.034;2022-07-29T05:11:24;95078.72;;;21.40;100.00
7990;BME280;4040;42.848;23.034;2022-07-29T05:17:15;95071.84;;;22.38;100.00
7990;BME280;4040;42.848;23.034;2022-07-29T05:23:03;95062.72;;;24.17;100.00
7990;BME280;4040;42.848;23.034;2022-07-29T05:28:52;95056.84;;;26.10;100.00
7990;BME280;4040;42.848;23.034;2022-07-29T05:34:43;95065.50;;;26.34;100.00
7990;BME280;4040;42.848;23.034;2022-07-29T05:44:53;95058.69;;;27.20;90.61
7990;BME280;4040;42.848;23.034;2022-07-29T05:50:43;95066.47;;;29.02;76.37
7990;BME280;4040;42.848;23.034;2022-07-29T05:56:32;95072.00;;;30.99;62.05
7990;BME280;4040;42.848;23.034;2022-07-29T06:02:21;95066.13;;;31.52;55.89
7990;BME280;4040;42.848;23.034;2022-07-29T06:08:11;95068.81;;;31.58;58.51
7990;BME280;4040;42.848;23.034;2022-07-29T06:13:59;95074.25;;;30.82;56.53
7990;BME280;4040;42.848;23.034;2022-07-29T06:19:50;95061.13;;;30.40;55.61
7990;BME280;4040;42.848;23.034;2022-07-29T06:25:41;95058.50;;;29.51;61.00
7990;BME280;4040;42.848;23.034;2022-07-29T06:31:29;95064.25;;;30.92;54.41
7990;BME280;4040;42.848;23.034;2022-07-29T06:37:18;95066.97;;;31.79;51.98
7990;BME280;4040;42.848;23.034;2022-07-29T06:47:30;95067.44;;;33.61;46.45
7990;BME280;4040;42.848;23.034;2022-07-29T06:53:19;95058.56;;;33.70;45.49
7990;BME280;4040;42.848;23.034;2022-07-29T06:59:09;95064.72;;;31.46;48.20
7990;BME280;4040;42.848;23.034;2022-07-29T07:04:59;95053.25;;;31.81;50.21
7990;BME280;4040;42.848;23.034;2022-07-29T07:10:48;95046.72;;;33.77;44.44
7990;BME280;4040;42.848;23.034;2022-07-29T07:16:37;95041.31;;;33.99;42.66
7990;BME280;4040;42.848;23.034;2022-07-29T07:22:27;95043.88;;;33.15;45.50
7990;BME280;4040;42.848;23.034;2022-07-29T07:28:16;95046.59;;;34.38;41.75
7990;BME280;4040;42.848;23.034;2022-07-29T07:34:04;95053.75;;;34.90;40.14
7990;BME280;4040;42.848;23.034;2022-07-29T07:39:55;95043.88;;;34.96;41.08
7990;BME280;4040;42.848;23.034;2022-07-29T07:50:07;95038.97;;;35.32;39.50
7990;BME280;4040;42.848;23.034;2022-07-29T07:55:58;95047.97;;;34.52;40.94
7990;BME280;4040;42.848;23.034;2022-07-29T08:01:46;95042.25;;;34.30;42.37
7990;BME280;4040;42.848;23.034;2022-07-29T08:07:35;95048.50;;;33.46;42.32
7990;BME280;4040;42.848;23.034;2022-07-29T08:13:26;95044.66;;;32.82;44.04
7990;BME280;4040;42.848;23.034;2022-07-29T08:19:17;95042.03;;;34.56;41.05
7990;BME280;4040;42.848;23.034;2022-07-29T08:25:06;95042.50;;;34.39;41.62
7990;BME280;4040;42.848;23.034;2022-07-29T08:30:57;95044.91;;;32.45;45.41
7990;BME280;4040;42.848;23.034;2022-07-29T08:36:45;95040.00;;;32.38;46.64
7990;BME280;4040;42.848;23.034;2022-07-29T08:42:34;95029.72;;;31.50;48.66
7990;BME280;4040;42.848;23.034;2022-07-29T08:52:47;95029.66;;;31.95;46.97
7990;BME280;4040;42.848;23.034;2022-07-29T08:58:38;95022.16;;;32.16;46.75
7990;BME280;4040;42.848;23.034;2022-07-29T09:04:30;95006.19;;;32.42;45.63
7990;BME280;4040;42.848;23.034;2022-07-29T09:10:22;94997.84;;;33.70;43.04
7990;BME280;4040;42.848;23.034;2022-07-29T09:16:11;95022.00;;;34.87;40.64
7990;BME280;4040;42.848;23.034;2022-07-29T09:22:01;95019.41;;;34.46;39.94
7990;BME280;4040;42.848;23.034;2022-07-29T09:27:51;95019.88;;;34.65;42.73
7990;BME280;4040;42.848;23.034;2022-07-29T09:33:39;95010.09;;;34.94;39.84
7990;BME280;4040;42.848;23.034;2022-07-29T09:39:31;95006.38;;;34.99;40.40
7990;BME280;4040;42.848;23.034;2022-07-29T09:45:29;94982.38;;;34.25;39.72
7990;BME280;4040;42.848;23.034;2022-07-29T09:55:47;94976.50;;;34.87;39.54
7990;BME280;4040;42.848;23.034;2022-07-29T10:01:38;94973.13;;;34.81;39.60
7990;BME280;4040;42.848;23.034;2022-07-29T10:07:43;94960.47;;;34.95;38.28
7990;BME280;4040;42.848;23.034;2022-07-29T10:13:32;94952.31;;;35.49;38.56
7990;BME280;4040;42.848;23.034;2022-07-29T10:19:22;94947.56;;;34.34;38.97
7990;BME280;4040;42.848;23.034;2022-07-29T10:25:11;94943.06;;;33.67;41.03
7990;BME280;4040;42.848;23.034;2022-07-29T10:31:08;94931.00;;;34.43;38.56
7990;BME280;4040;42.848;23.034;2022-07-29T10:37:08;94923.09;;;34.70;38.33
7990;BME280;4040;42.848;23.034;2022-07-29T10:43:09;94924.53;;;34.13;40.71
7990;BME280;4040;42.848;23.034;2022-07-29T10:49:11;94921.09;;;33.71;38.54
7990;BME280;4040;42.848;23.034;2022-07-29T10:55:03;94910.75;;;33.23;41.03
7990;BME280;4040;42.848;23.034;2022-07-29T11:00:54;94907.31;;;32.76;40.56
7990;BME280;4040;42.848;23.034;2022-07-29T11:07:06;94905.78;;;32.22;41.48
7990;BME280;4040;42.848;23.034;2022-07-29T11:12:57;94891.88;;;31.31;42.82
7990;BME280;4040;42.848;23.034;2022-07-29T11:25:14;94887.59;;;31.56;42.23
7990;BME280;4040;42.848;23.034;2022-07-29T11:31:04;94877.78;;;31.68;42.65
7990;BME280;4040;42.848;23.034;2022-07-29T11:37:23;94877.34;;;31.77;41.38
7990;BME280;4040;42.848;23.034;2022-07-29T11:43:45;94878.16;;;31.98;41.67
7990;BME280;4040;42.848;23.034;2022-07-29T11:49:35;94872.28;;;31.75;42.25
7990;BME280;4040;42.848;23.034;2022-07-29T11:55:24;94873.38;;;31.72;42.67
7990;BME280;4040;42.848;23.034;2022-07-29T12:01:13;94847.09;;;31.55;42.09
7990;BME280;4040;42.848;23.034;2022-07-29T12:07:06;94856.53;;;31.52;41.91
7990;BME280;4040;42.848;23.034;2022-07-29T12:12:55;94855.25;;;31.66;41.52
7990;BME280;4040;42.848;23.034;2022-07-29T12:18:54;94857.41;;;31.73;41.72
7990;BME280;4040;42.848;23.034;2022-07-29T12:24:44;94849.94;;;31.68;41.65
7990;BME280;4040;42.848;23.034;2022-07-29T12:30:41;94847.53;;;31.85;40.12
7990;BME280;4040;42.848;23.034;2022-07-29T12:36:30;94833.63;;;31.72;40.65
7990;BME280;4040;42.848;23.034;2022-07-29T12:42:20;94817.09;;;31.87;40.30
7990;BME280;4040;42.848;23.034;2022-07-29T12:48:09;94825.47;;;31.87;40.44
7990;BME280;4040;42.848;23.034;2022-07-29T12:58:29;94816.44;;;31.94;40.58
7990;BME280;4040;42.848;23.034;2022-07-29T13:04:25;94811.84;;;32.17;40.04
7990;BME280;4040;42.848;23.034;2022-07-29T13:10:16;94780.78;;;31.92;39.12
7990;BME280;4040;42.848;23.034;2022-07-29T13:16:07;94793.88;;;32.38;39.82
7990;BME280;4040;42.848;23.034;2022-07-29T13:21:56;94781.19;;;32.30;38.60
7990;BME280;4040;42.848;23.034;2022-07-29T13:27:45;94787.41;;;32.23;39.95
7990;BME280;4040;42.848;23.034;2022-07-29T13:33:35;94781.84;;;32.23;39.72
7990;BME280;4040;42.848;23.034;2022-07-29T13:39:23;94777.56;;;32.22;39.74
7990;BME280;4040;42.848;23.034;2022-07-29T13:45:12;94782.25;;;32.27;38.96
7990;BME280;4040;42.848;23.034;2022-07-29T13:51:02;94797.34;;;31.98;38.37
7990;BME280;4040;42.848;23.034;2022-07-29T14:01:12;94798.84;;;31.52;39.47
7990;BME280;4040;42.848;23.034;2022-07-29T14:07:02;94783.53;;;31.46;39.42
7990;BME280;4040;42.848;23.034;2022-07-29T14:12:51;94786.22;;;31.85;39.23
7990;BME280;4040;42.848;23.034;2022-07-29T14:18:40;94793.00;;;32.23;40.03
7990;BME280;4040;42.848;23.034;2022-07-29T14:24:31;94772.59;;;32.28;39.44
7990;BME280;4040;42.848;23.034;2022-07-29T14:30:19;94780.97;;;32.15;39.10
7990;BME280;4040;42.848;23.034;2022-07-29T14:36:08;94776.25;;;31.89;39.31
7990;BME280;4040;42.848;23.034;2022-07-29T14:41:58;94767.66;;;31.54;39.81
7990;BME280;4040;42.848;23.034;2022-07-29T14:47:46;94780.72;;;31.59;39.58
7990;BME280;4040;42.848;23.034;2022-07-29T14:53:36;94787.97;;;31.75;39.46
7990;BME280;4040;42.848;23.034;2022-07-29T15:03:49;94779.09;;;31.76;39.77
7990;BME280;4040;42.848;23.034;2022-07-29T15:09:37;94778.78;;;31.54;39.80
7990;BME280;4040;42.848;23.034;2022-07-29T15:15:27;94774.31;;;31.51;39.92
7990;BME280;4040;42.848;23.034;2022-07-29T15:21:17;94784.81;;;31.45;39.95
7990;BME280;4040;42.848;23.034;2022-07-29T15:27:05;94777.13;;;31.38;40.83
7990;BME280;4040;42.848;23.034;2022-07-29T15:32:54;94771.75;;;30.88;46.74
7990;BME280;4040;42.848;23.034;2022-07-29T15:38:44;94782.03;;;30.48;48.94
7990;BME280;4040;42.848;23.034;2022-07-29T15:44:33;94785.09;;;30.32;50.61
7990;BME280;4040;42.848;23.034;2022-07-29T15:50:22;94785.59;;;29.99;52.45
7990;BME280;4040;42.848;23.034;2022-07-29T15:56:12;94792.63;;;29.26;56.43
7990;BME280;4040;42.848;23.034;2022-07-29T16:06:23;94788.72;;;29.16;59.37
7990;BME280;4040;42.848;23.034;2022-07-29T16:12:13;94787.22;;;29.15;59.44
7990;BME280;4040;42.848;23.034;2022-07-29T16:18:02;94788.56;;;29.27;57.89
7990;BME280;4040;42.848;23.034;2022-07-29T16:23:51;94780.94;;;29.51;56.53
7990;BME280;4040;42.848;23.034;2022-07-29T16:29:41;94777.34;;;29.75;58.30
7990;BME280;4040;42.848;23.034;2022-07-29T16:35:29;94775.25;;;29.81;56.61
7990;BME280;4040;42.848;23.034;2022-07-29T16:41:18;94781.25;;;29.85;56.70
7990;BME280;4040;42.848;23.034;2022-07-29T16:47:08;94789.28;;;29.70;57.33
7990;BME280;4040;42.848;23.034;2022-07-29T16:52:57;94786.28;;;29.49;58.14
7990;BME280;4040;42.848;23.034;2022-07-29T16:58:46;94795.00;;;29.35;59.65
7990;BME280;4040;42.848;23.034;2022-07-29T17:08:58;94788.72;;;29.16;61.88
7990;BME280;4040;42.848;23.034;2022-07-29T17:14:47;94785.47;;;29.12;63.59
7990;BME280;4040;42.848;23.034;2022-07-29T17:20:36;94787.91;;;28.97;64.96
7990;BME280;4040;42.848;23.034;2022-07-29T17:26:26;94794.56;;;28.83;66.37
7990;BME280;4040;42.848;23.034;2022-07-29T17:32:15;94805.66;;;28.59;67.97
7990;BME280;4040;42.848;23.034;2022-07-29T17:38:03;94804.75;;;28.46;70.38
7990;BME280;4040;42.848;23.034;2022-07-29T17:43:54;94803.97;;;28.21;71.24
7990;BME280;4040;42.848;23.034;2022-07-29T17:49:43;94801.31;;;27.99;72.44
7990;BME280;4040;42.848;23.034;2022-07-29T17:55:32;94803.47;;;27.82;79.07
7990;BME280;4040;42.848;23.034;2022-07-29T18:01:22;94810.13;;;27.57;80.74
7990;BME280;4040;42.848;23.034;2022-07-29T18:11:33;94817.84;;;27.07;88.55
7990;BME280;4040;42.848;23.034;2022-07-29T18:17:23;94815.16;;;26.91;89.04
7990;BME280;4040;42.848;23.034;2022-07-29T18:23:12;94829.25;;;26.76;92.99
7990;BME280;4040;42.848;23.034;2022-07-29T18:29:01;94842.56;;;26.39;100.00
7990;BME280;4040;42.848;23.034;2022-07-29T18:34:51;94847.31;;;26.17;100.00
7990;BME280;4040;42.848;23.034;2022-07-29T18:40:39;94861.00;;;25.79;100.00
7990;BME280;4040;42.848;23.034;2022-07-29T18:46:29;94863.41;;;25.44;100.00
7990;BME280;4040;42.848;23.034;2022-07-29T18:52:19;94859.16;;;24.95;100.00
7990;BME280;4040;42.848;23.034;2022-07-29T18:58:08;94871.22;;;24.61;100.00
7990;BME280;4040;42.848;23.034;2022-07-29T19:03:56;94878.94;;;24.32;100.00
7990;BME280;4040;42.848;23.034;2022-07-29T19:14:08;94879.06;;;23.92;100.00
7990;BME280;4040;42.848;23.034;2022-07-29T19:19:57;94879.06;;;23.72;100.00
7990;BME280;4040;42.848;23.034;2022-07-29T19:25:46;94891.34;;;23.51;100.00
7990;BME280;4040;42.848;23.034;2022-07-29T19:31:37;94898.00;;;23.25;100.00
7990;BME280;4040;42.848;23.034;2022-07-29T19:37:25;94894.19;;;23.02;100.00
7990;BME280;4040;42.848;23.034;2022-07-29T19:43:14;94905.69;;;22.86;100.00
7990;BME280;4040;42.848;23.034;2022-07-29T19:49:04;94914.91;;;22.83;100.00
7990;BME280;4040;42.848;23.034;2022-07-29T19:54:53;94913.06;;;22.60;100.00
7990;BME280;4040;42.848;23.034;2022-07-29T20:00:42;94919.31;;;22.17;100.00
7990;BME280;4040;42.848;23.034;2022-07-29T20:06:32;94911.22;;;21.85;100.00
7990;BME280;4040;42.848;23.034;2022-07-29T20:16:42;94903.09;;;21.76;100.00
7990;BME280;4040;42.848;23.034;2022-07-29T20:22:33;94914.50;;;21.74;100.00
7990;BME280;4040;42.848;23.034;2022-07-29T20:28:22;94908.50;;;21.61;100.00
7990;BME280;4040;42.848;23.034;2022-07-29T20:34:11;94918.25;;;21.62;100.00
7990;BME280;4040;42.848;23.034;2022-07-29T20:40:01;94916.97;;;21.72;100.00
7990;BME280;4040;42.848;23.034;2022-07-29T20:45:50;94924.44;;;21.48;100.00
7990;BME280;4040;42.848;23.034;2022-07-29T20:51:39;94924.22;;;21.37;100.00
7990;BME280;4040;42.848;23.034;2022-07-29T20:57:29;94920.50;;;21.26;100.00
7990;BME280;4040;42.848;23.034;2022-07-29T21:03:18;94903.38;;;21.16;100.00
7990;BME280;4040;42.848;23.034;2022-07-29T21:09:07;94909.88;;;20.95;100.00
7990;BME280;4040;42.848;23.034;2022-07-29T21:19:19;94910.69;;;20.46;100.00
7990;BME280;4040;42.848;23.034;2022-07-29T21:25:08;94916.13;;;20.13;100.00
7990;BME280;4040;42.848;23.034;2022-07-29T21:30:58;94934.44;;;20.40;100.00
7990;BME280;4040;42.848;23.034;2022-07-29T21:36:49;94932.84;;;20.57;100.00
7990;BME280;4040;42.848;23.034;2022-07-29T21:42:37;94933.41;;;20.28;100.00
7990;BME280;4040;42.848;23.034;2022-07-29T21:48:27;94944.84;;;19.82;100.00
7990;BME280;4040;42.848;23.034;2022-07-29T21:54:17;94955.63;;;19.85;100.00
7990;BME280;4040;42.848;23.034;2022-07-29T22:08:33;94962.31;;;19.75;100.00
7990;BME280;4040;42.848;23.034;2022-07-29T22:14:22;94966.88;;;19.51;100.00
7990;BME280;4040;42.848;23.034;2022-07-29T22:20:11;94964.09;;;19.33;100.00
7990;BME280;4040;42.848;23.034;2022-07-29T22:26:01;94965.44;;;19.20;100.00
7990;BME280;4040;42.848;23.034;2022-07-29T22:31:50;94958.13;;;19.08;100.00
7990;BME280;4040;42.848;23.034;2022-07-29T22:37:38;94967.81;;;19.09;100.00
7990;BME280;4040;42.848;23.034;2022-07-29T22:43:29;94956.16;;;19.17;100.00
7990;BME280;4040;42.848;23.034;2022-07-29T22:49:17;94959.72;;;19.27;100.00
7990;BME280;4040;42.848;23.034;2022-07-29T22:55:06;94957.88;;;19.33;100.00
7990;BME280;4040;42.848;23.034;2022-07-29T23:00:57;94960.22;;;19.13;100.00
7990;BME280;4040;42.848;23.034;2022-07-29T23:11:07;94964.13;;;18.85;100.00
7990;BME280;4040;42.848;23.034;2022-07-29T23:16:57;94957.19;;;18.93;100.00
7990;BME280;4040;42.848;23.034;2022-07-29T23:22:45;94942.88;;;18.80;100.00
7990;BME280;4040;42.848;23.034;2022-07-29T23:28:34;94925.25;;;18.72;100.00
7990;BME280;4040;42.848;23.034;2022-07-29T23:34:24;94946.41;;;18.89;100.00
7990;BME280;4040;42.848;23.034;2022-07-29T23:40:13;94948.09;;;18.96;100.00
7990;BME280;4040;42.848;23.034;2022-07-29T23:46:02;94917.81;;;19.30;100.00
7990;BME280;4040;42.848;23.034;2022-07-29T23:51:52;94940.31;;;19.79;100.00
7990;BME280;4040;42.848;23.034;2022-07-29T23:57:41;94932.69;;;19.74;100.00
